createdAt,value
2019-06-04T00:00:07.884Z,20.72
2019-06-04T00:01:24.436Z,20.70
2019-06-04T00:02:07.875Z,20.72
2019-06-04T00:03:07.872Z,20.65
2019-06-04T00:04:07.880Z,20.60
2019-06-04T00:05:07.876Z,20.59
2019-06-04T00:06:07.879Z,20.55
2019-06-04T00:07:07.879Z,20.43
2019-06-04T00:08:07.883Z,20.41
2019-06-04T00:09:07.882Z,20.44
2019-06-04T00:10:07.893Z,20.41
2019-06-04T00:11:07.886Z,20.43
2019-06-04T00:12:07.884Z,20.41
2019-06-04T00:13:07.890Z,20.50
2019-06-04T00:14:07.891Z,20.47
2019-06-04T00:15:07.898Z,20.51
2019-06-04T00:16:07.900Z,20.48
2019-06-04T00:17:07.908Z,20.44
2019-06-04T00:18:07.896Z,20.43
2019-06-04T00:19:07.897Z,20.40
2019-06-04T00:20:07.899Z,20.47
2019-06-04T00:21:07.904Z,20.43
2019-06-04T00:22:07.918Z,20.39
2019-06-04T00:23:07.905Z,20.32
2019-06-04T00:24:07.914Z,20.32
2019-06-04T00:25:07.910Z,20.41
2019-06-04T00:26:09.647Z,20.36
2019-06-04T00:27:07.916Z,20.32
2019-06-04T00:28:07.913Z,20.22
2019-06-04T00:29:08.371Z,20.25
2019-06-04T00:30:08.481Z,20.18
2019-06-04T00:31:08.526Z,20.18
2019-06-04T00:32:08.242Z,20.22
2019-06-04T00:33:08.323Z,20.14
2019-06-04T00:34:09.233Z,20.10
2019-06-04T00:35:08.834Z,20.06
2019-06-04T00:36:09.027Z,20.09
2019-06-04T00:37:08.449Z,20.06
2019-06-04T00:38:08.961Z,20.13
2019-06-04T00:39:08.875Z,19.95
2019-06-04T00:40:08.795Z,20.02
2019-06-04T00:41:09.111Z,19.94
2019-06-04T00:42:08.923Z,19.94
2019-06-04T00:43:09.559Z,20.00
2019-06-04T00:44:09.151Z,20.02
2019-06-04T00:45:08.944Z,19.91
2019-06-04T00:46:09.044Z,20.00
2019-06-04T00:47:09.357Z,20.02
2019-06-04T00:48:09.348Z,19.96
2019-06-04T00:49:09.106Z,19.99
2019-06-04T00:50:09.208Z,19.99
2019-06-04T00:51:09.806Z,19.95
2019-06-04T00:52:09.106Z,19.95
2019-06-04T00:53:09.380Z,20.03
2019-06-04T00:54:09.143Z,19.99
2019-06-04T00:55:07.946Z,19.91
2019-06-04T00:56:08.602Z,19.88
2019-06-04T00:57:08.402Z,19.91
2019-06-04T00:58:08.713Z,19.85
2019-06-04T00:59:07.963Z,19.84
2019-06-04T01:00:08.939Z,19.81
2019-06-04T01:01:08.057Z,19.84
2019-06-04T01:02:09.022Z,19.84
2019-06-04T01:03:08.147Z,19.82
2019-06-04T01:04:14.277Z,19.82
2019-06-04T01:05:08.262Z,19.81
2019-06-04T01:06:08.202Z,19.73
2019-06-04T01:07:07.962Z,19.69
2019-06-04T01:08:20.730Z,19.71
2019-06-04T01:09:07.964Z,19.67
2019-06-04T01:10:07.963Z,19.67
2019-06-04T01:11:08.148Z,19.63
2019-06-04T01:12:08.147Z,19.69
2019-06-04T01:13:14.747Z,19.55
2019-06-04T01:14:08.554Z,19.64
2019-06-04T01:15:24.669Z,19.55
2019-06-04T01:16:08.526Z,19.55
2019-06-04T01:17:08.639Z,19.54
2019-06-04T01:18:08.793Z,19.59
2019-06-04T01:19:08.946Z,19.59
2019-06-04T01:20:08.860Z,19.59
2019-06-04T01:21:09.206Z,19.56
2019-06-04T01:22:09.098Z,19.51
2019-06-04T01:23:09.476Z,19.51
2019-06-04T01:24:09.351Z,19.49
2019-06-04T01:25:07.978Z,19.48
2019-06-04T01:26:07.988Z,19.47
2019-06-04T01:27:07.979Z,19.41
2019-06-04T01:28:09.936Z,19.47
2019-06-04T01:29:08.141Z,19.47
2019-06-04T01:30:08.069Z,19.45
2019-06-04T01:31:08.512Z,19.40
2019-06-04T01:32:20.287Z,19.33
2019-06-04T01:33:08.395Z,19.37
2019-06-04T01:34:08.391Z,19.33
2019-06-04T01:35:08.385Z,19.37
2019-06-04T01:36:08.706Z,19.39
2019-06-04T01:37:08.558Z,19.34
2019-06-04T01:38:08.860Z,19.27
2019-06-04T01:39:08.908Z,19.30
2019-06-04T01:40:09.321Z,19.26
2019-06-04T01:41:09.285Z,19.26
2019-06-04T01:42:08.969Z,19.29
2019-06-04T01:43:09.274Z,19.21
2019-06-04T01:44:09.420Z,19.15
2019-06-04T01:45:07.996Z,19.15
2019-06-04T01:46:08.002Z,19.12
2019-06-04T01:47:07.998Z,19.08
2019-06-04T01:48:08.119Z,19.12
2019-06-04T01:49:08.979Z,19.14
2019-06-04T01:50:08.279Z,19.14
2019-06-04T01:51:08.457Z,19.09
2019-06-04T01:52:08.214Z,19.11
2019-06-04T01:53:08.574Z,19.07
2019-06-04T01:54:08.397Z,19.09
2019-06-04T01:55:08.662Z,19.15
2019-06-04T01:56:08.773Z,19.12
2019-06-04T01:57:08.703Z,19.12
2019-06-04T01:58:10.221Z,19.08
2019-06-04T01:59:09.013Z,19.11
2019-06-04T02:00:16.813Z,19.09
2019-06-04T02:01:09.256Z,19.21
2019-06-04T02:02:09.299Z,19.21
2019-06-04T02:03:09.370Z,19.09
2019-06-04T02:04:08.004Z,19.14
2019-06-04T02:05:08.397Z,19.09
2019-06-04T02:06:08.008Z,19.08
2019-06-04T02:07:08.006Z,19.14
2019-06-04T02:08:08.853Z,19.07
2019-06-04T02:09:08.270Z,19.09
2019-06-04T02:10:09.649Z,19.07
2019-06-04T02:11:08.429Z,18.90
2019-06-04T02:12:13.202Z,18.96
2019-06-04T02:13:08.639Z,18.95
2019-06-04T02:14:08.803Z,18.89
2019-06-04T02:15:09.240Z,18.90
2019-06-04T02:16:15.974Z,18.93
2019-06-04T02:17:08.012Z,18.93
2019-06-04T02:18:08.191Z,18.88
2019-06-04T02:19:08.013Z,18.83
2019-06-04T02:20:08.128Z,18.88
2019-06-04T02:21:08.162Z,18.89
2019-06-04T02:22:08.042Z,18.90
2019-06-04T02:23:08.464Z,18.89
2019-06-04T02:24:08.016Z,18.89
2019-06-04T02:25:08.191Z,18.93
2019-06-04T02:26:08.464Z,18.86
2019-06-04T02:27:08.249Z,18.77
2019-06-04T02:28:08.522Z,18.78
2019-06-04T02:29:08.276Z,18.74
2019-06-04T02:30:10.282Z,18.81
2019-06-04T02:31:08.475Z,18.75
2019-06-04T02:32:08.639Z,18.71
2019-06-04T02:33:13.746Z,18.73
2019-06-04T02:34:08.720Z,18.75
2019-06-04T02:35:08.655Z,18.75
2019-06-04T02:36:08.892Z,18.66
2019-06-04T02:37:08.684Z,18.66
2019-06-04T02:38:08.842Z,18.59
2019-06-04T02:39:08.093Z,18.56
2019-06-04T02:40:08.894Z,18.68
2019-06-04T02:41:08.227Z,18.56
2019-06-04T02:42:09.054Z,18.58
2019-06-04T02:43:08.299Z,18.62
2019-06-04T02:44:09.267Z,18.63
2019-06-04T02:45:08.267Z,18.56
2019-06-04T02:46:08.853Z,18.52
2019-06-04T02:47:08.474Z,18.58
2019-06-04T02:48:08.031Z,18.52
2019-06-04T02:49:08.888Z,18.49
2019-06-04T02:50:08.157Z,18.53
2019-06-04T02:51:08.947Z,18.56
2019-06-04T02:52:09.005Z,18.55
2019-06-04T02:53:09.244Z,18.55
2019-06-04T02:54:09.423Z,18.58
2019-06-04T02:55:08.023Z,18.52
2019-06-04T02:56:08.143Z,18.41
2019-06-04T02:57:08.024Z,18.49
2019-06-04T02:58:08.064Z,18.49
2019-06-04T02:59:08.154Z,18.52
2019-06-04T03:00:08.292Z,18.49
2019-06-04T03:01:09.030Z,18.45
2019-06-04T03:02:08.505Z,18.45
2019-06-04T03:03:22.382Z,18.44
2019-06-04T03:04:08.550Z,18.40
2019-06-04T03:05:08.595Z,18.38
2019-06-04T03:06:09.030Z,18.38
2019-06-04T03:07:09.108Z,18.44
2019-06-04T03:08:08.946Z,18.40
2019-06-04T03:09:09.197Z,18.37
2019-06-04T03:10:09.022Z,18.35
2019-06-04T03:11:09.410Z,18.41
2019-06-04T03:12:09.207Z,18.35
2019-06-04T03:13:09.399Z,18.38
2019-06-04T03:14:09.473Z,18.40
2019-06-04T03:15:08.028Z,18.40
2019-06-04T03:16:08.023Z,18.33
2019-06-04T03:17:08.028Z,18.31
2019-06-04T03:18:35.778Z,18.26
2019-06-04T03:19:08.026Z,18.31
2019-06-04T03:20:08.025Z,18.29
2019-06-04T03:21:08.029Z,18.23
2019-06-04T03:22:08.026Z,18.29
2019-06-04T03:23:08.024Z,18.23
2019-06-04T03:24:08.025Z,18.28
2019-06-04T03:25:08.039Z,18.28
2019-06-04T03:26:08.023Z,18.20
2019-06-04T03:27:08.024Z,18.37
2019-06-04T03:28:08.026Z,18.26
2019-06-04T03:29:08.024Z,18.29
2019-06-04T03:30:08.028Z,18.29
2019-06-04T03:31:08.256Z,18.34
2019-06-04T03:32:08.034Z,18.28
2019-06-04T03:33:08.028Z,18.35
2019-06-04T03:34:08.025Z,18.31
2019-06-04T03:35:08.023Z,18.31
2019-06-04T03:36:08.026Z,18.34
2019-06-04T03:37:08.023Z,18.23
2019-06-04T03:38:08.027Z,18.33
2019-06-04T03:39:08.028Z,18.31
2019-06-04T03:40:08.023Z,18.35
2019-06-04T03:41:08.022Z,18.29
2019-06-04T03:42:08.023Z,18.35
2019-06-04T03:43:08.029Z,18.34
2019-06-04T03:44:08.024Z,18.29
2019-06-04T03:45:08.038Z,18.43
2019-06-04T03:46:08.025Z,18.41
2019-06-04T03:47:08.029Z,18.41
2019-06-04T03:48:08.027Z,18.41
2019-06-04T03:49:08.025Z,18.38
2019-06-04T03:50:08.033Z,18.37
2019-06-04T03:51:08.023Z,18.40
2019-06-04T03:52:08.024Z,18.40
2019-06-04T03:53:08.027Z,18.34
2019-06-04T03:54:08.029Z,18.38
2019-06-04T03:55:08.023Z,18.33
2019-06-04T03:56:08.025Z,18.37
2019-06-04T03:57:08.023Z,18.34
2019-06-04T03:58:08.025Z,18.43
2019-06-04T03:59:08.022Z,18.41
2019-06-04T04:00:08.027Z,18.41
2019-06-04T04:01:08.026Z,18.45
2019-06-04T04:02:08.637Z,18.45
2019-06-04T04:03:08.027Z,18.38
2019-06-04T04:04:08.589Z,18.44
2019-06-04T04:05:08.091Z,18.47
2019-06-04T04:06:08.025Z,18.52
2019-06-04T04:07:08.023Z,18.55
2019-06-04T04:08:08.095Z,18.59
2019-06-04T04:09:08.051Z,18.58
2019-06-04T04:10:08.023Z,18.58
2019-06-04T04:11:08.019Z,18.60
2019-06-04T04:12:08.022Z,18.60
2019-06-04T04:13:08.027Z,18.63
2019-06-04T04:14:08.023Z,18.65
2019-06-04T04:15:08.021Z,18.77
2019-06-04T04:16:08.023Z,18.74
2019-06-04T04:17:08.027Z,18.74
2019-06-04T04:18:08.024Z,18.78
2019-06-04T04:19:08.030Z,18.77
2019-06-04T04:20:08.026Z,18.78
2019-06-04T04:21:08.023Z,18.90
2019-06-04T04:22:08.024Z,18.89
2019-06-04T04:23:08.030Z,18.86
2019-06-04T04:24:08.025Z,18.88
2019-06-04T04:25:08.025Z,18.95
2019-06-04T04:26:08.026Z,18.92
2019-06-04T04:27:08.023Z,18.96
2019-06-04T04:28:08.027Z,19.00
2019-06-04T04:29:08.023Z,19.00
2019-06-04T04:30:08.031Z,18.98
2019-06-04T04:31:08.024Z,19.02
2019-06-04T04:32:08.029Z,19.08
2019-06-04T04:33:08.021Z,19.09
2019-06-04T04:34:24.594Z,19.18
2019-06-04T04:35:08.027Z,19.14
2019-06-04T04:36:08.030Z,19.16
2019-06-04T04:37:08.060Z,19.18
2019-06-04T04:38:08.028Z,19.30
2019-06-04T04:39:08.028Z,19.31
2019-06-04T04:40:08.029Z,19.41
2019-06-04T04:41:08.031Z,19.41
2019-06-04T04:42:08.040Z,19.48
2019-06-04T04:43:08.030Z,19.49
2019-06-04T04:44:08.031Z,19.56
2019-06-04T04:45:08.035Z,19.55
2019-06-04T04:46:08.042Z,19.56
2019-06-04T04:47:08.032Z,19.69
2019-06-04T04:48:08.033Z,19.69
2019-06-04T04:49:08.033Z,19.69
2019-06-04T04:50:08.098Z,19.85
2019-06-04T04:51:08.035Z,19.77
2019-06-04T04:52:08.046Z,19.85
2019-06-04T04:53:11.715Z,19.85
2019-06-04T04:54:08.038Z,19.85
2019-06-04T04:55:08.038Z,19.88
2019-06-04T04:56:08.040Z,19.89
2019-06-04T04:57:08.043Z,19.95
2019-06-04T04:58:08.040Z,19.91
2019-06-04T04:59:08.043Z,20.06
2019-06-04T05:00:08.042Z,20.06
2019-06-04T05:01:08.043Z,20.09
2019-06-04T05:02:08.044Z,20.02
2019-06-04T05:03:08.744Z,20.04
2019-06-04T05:04:08.048Z,20.07
2019-06-04T05:05:08.045Z,20.09
2019-06-04T05:06:08.046Z,20.18
2019-06-04T05:07:08.046Z,20.40
2019-06-04T05:08:08.050Z,20.47
2019-06-04T05:09:08.052Z,20.72
2019-06-04T05:10:08.062Z,21.05
2019-06-04T05:11:08.052Z,21.45
2019-06-04T05:12:08.054Z,21.61
2019-06-04T05:13:08.103Z,21.70
2019-06-04T05:14:08.059Z,21.99
2019-06-04T05:15:08.081Z,22.29
2019-06-04T05:16:08.076Z,22.73
2019-06-04T05:17:08.062Z,23.03
2019-06-04T05:18:08.061Z,23.23
2019-06-04T05:19:08.066Z,23.13
2019-06-04T05:20:08.066Z,23.21
2019-06-04T05:21:08.067Z,23.34
2019-06-04T05:22:08.072Z,23.50
2019-06-04T05:23:08.072Z,23.76
2019-06-04T05:24:08.091Z,23.99
2019-06-04T05:25:08.074Z,24.06
2019-06-04T05:26:08.078Z,23.93
2019-06-04T05:27:08.080Z,23.71
2019-06-04T05:28:08.085Z,23.63
2019-06-04T05:29:08.141Z,23.58
2019-06-04T05:30:08.117Z,23.55
2019-06-04T05:31:08.089Z,23.71
2019-06-04T05:32:08.092Z,23.91
2019-06-04T05:33:08.096Z,24.14
2019-06-04T05:34:08.099Z,24.21
2019-06-04T05:35:08.108Z,24.11
2019-06-04T05:36:08.105Z,23.84
2019-06-04T05:37:08.103Z,23.74
2019-06-04T05:38:08.110Z,23.54
2019-06-04T05:39:08.111Z,23.34
2019-06-04T05:40:08.122Z,23.17
2019-06-04T05:41:08.120Z,23.03
2019-06-04T05:42:08.123Z,23.02
2019-06-04T05:43:08.123Z,22.94
2019-06-04T05:44:08.126Z,22.84
2019-06-04T05:45:08.333Z,22.85
2019-06-04T05:46:08.132Z,22.65
2019-06-04T05:47:08.135Z,22.72
2019-06-04T05:48:08.138Z,22.62
2019-06-04T05:49:08.141Z,22.87
2019-06-04T05:50:08.143Z,22.90
2019-06-04T05:51:08.149Z,23.23
2019-06-04T05:52:08.147Z,23.41
2019-06-04T05:53:08.150Z,23.54
2019-06-04T05:54:08.155Z,23.63
2019-06-04T05:55:08.157Z,23.73
2019-06-04T05:56:08.163Z,23.91
2019-06-04T05:57:08.161Z,24.06
2019-06-04T05:58:08.166Z,24.39
2019-06-04T05:59:08.170Z,24.48
2019-06-04T06:00:08.169Z,24.48
2019-06-04T06:01:08.176Z,24.36
2019-06-04T06:02:08.183Z,24.30
2019-06-04T06:03:08.194Z,24.11
2019-06-04T06:04:08.196Z,23.99
2019-06-04T06:05:23.262Z,23.99
2019-06-04T06:06:08.189Z,23.93
2019-06-04T06:07:09.362Z,23.86
2019-06-04T06:08:09.342Z,23.87
2019-06-04T06:09:08.200Z,23.91
2019-06-04T06:10:08.209Z,24.03
2019-06-04T06:11:08.229Z,24.16
2019-06-04T06:12:08.214Z,24.20
2019-06-04T06:13:08.210Z,24.03
2019-06-04T06:14:08.238Z,24.03
2019-06-04T06:15:09.825Z,23.95
2019-06-04T06:16:08.223Z,23.87
2019-06-04T06:17:08.228Z,23.86
2019-06-04T06:18:08.230Z,23.77
2019-06-04T06:19:08.247Z,23.74
2019-06-04T06:20:08.236Z,23.74
2019-06-04T06:21:08.957Z,23.71
2019-06-04T06:22:08.243Z,23.68
2019-06-04T06:23:11.325Z,23.69
2019-06-04T06:24:08.252Z,23.73
2019-06-04T06:25:08.254Z,23.73
2019-06-04T06:26:08.265Z,23.69
2019-06-04T06:27:08.262Z,23.74
2019-06-04T06:28:08.301Z,23.68
2019-06-04T06:29:08.265Z,23.73
2019-06-04T06:30:08.273Z,23.77
2019-06-04T06:31:08.271Z,23.74
2019-06-04T06:32:08.281Z,23.74
2019-06-04T06:33:08.281Z,23.74
2019-06-04T06:34:08.279Z,23.74
2019-06-04T06:35:08.286Z,23.71
2019-06-04T06:36:08.651Z,23.65
2019-06-04T06:37:08.299Z,23.63
2019-06-04T06:38:08.301Z,23.48
2019-06-04T06:39:08.298Z,23.43
2019-06-04T06:40:08.302Z,23.48
2019-06-04T06:41:08.306Z,23.48
2019-06-04T06:42:08.311Z,23.37
2019-06-04T06:43:08.313Z,23.44
2019-06-04T06:44:08.318Z,23.44
2019-06-04T06:45:08.327Z,23.55
2019-06-04T06:46:08.324Z,23.50
2019-06-04T06:47:08.326Z,23.54
2019-06-04T06:48:08.334Z,23.54
2019-06-04T06:49:08.334Z,23.59
2019-06-04T06:50:08.334Z,23.55
2019-06-04T06:51:08.341Z,23.50
2019-06-04T06:52:08.526Z,23.50
2019-06-04T06:53:08.348Z,23.50
2019-06-04T06:54:08.351Z,23.55
2019-06-04T06:55:08.354Z,23.48
2019-06-04T06:56:08.356Z,23.54
2019-06-04T06:57:08.361Z,23.50
2019-06-04T06:58:08.367Z,23.51
2019-06-04T06:59:08.363Z,23.55
2019-06-04T07:00:08.373Z,23.50
2019-06-04T07:01:08.372Z,23.54
2019-06-04T07:02:23.905Z,23.51
2019-06-04T07:03:08.381Z,23.51
2019-06-04T07:04:08.391Z,23.46
2019-06-04T07:05:08.383Z,23.46
2019-06-04T07:06:08.396Z,23.47
2019-06-04T07:07:12.385Z,23.44
2019-06-04T07:08:08.395Z,23.48
2019-06-04T07:09:08.400Z,23.43
2019-06-04T07:10:08.407Z,23.41
2019-06-04T07:11:10.405Z,23.41
2019-06-04T07:12:08.414Z,23.39
2019-06-04T07:13:08.411Z,23.39
2019-06-04T07:14:08.417Z,23.47
2019-06-04T07:15:08.428Z,23.48
2019-06-04T07:16:08.441Z,23.41
2019-06-04T07:17:08.428Z,23.47
2019-06-04T07:18:08.429Z,23.48
2019-06-04T07:19:08.430Z,23.54
2019-06-04T07:20:09.896Z,23.51
2019-06-04T07:21:08.437Z,23.55
2019-06-04T07:22:08.442Z,23.50
2019-06-04T07:23:08.447Z,23.54
2019-06-04T07:24:08.448Z,23.55
2019-06-04T07:25:09.226Z,23.58
2019-06-04T07:26:08.457Z,23.58
2019-06-04T07:27:08.480Z,23.50
2019-06-04T07:28:08.470Z,23.61
2019-06-04T07:29:08.464Z,23.59
2019-06-04T07:30:08.467Z,23.58
2019-06-04T07:31:08.476Z,23.55
2019-06-04T07:32:08.472Z,23.55
2019-06-04T07:33:08.517Z,23.59
2019-06-04T07:34:08.481Z,23.58
2019-06-04T07:35:08.506Z,23.55
2019-06-04T07:36:22.729Z,23.61
2019-06-04T07:37:08.492Z,23.58
2019-06-04T07:38:09.451Z,23.61
2019-06-04T07:39:08.495Z,23.56
2019-06-04T07:40:08.769Z,23.71
2019-06-04T07:41:08.505Z,23.63
2019-06-04T07:42:08.512Z,23.73
2019-06-04T07:43:08.520Z,23.66
2019-06-04T07:44:08.509Z,23.73
2019-06-04T07:45:08.521Z,23.71
2019-06-04T07:46:08.515Z,23.71
2019-06-04T07:47:08.521Z,23.74
2019-06-04T07:48:08.534Z,23.69
2019-06-04T07:49:08.526Z,23.76
2019-06-04T07:50:08.530Z,23.73
2019-06-04T07:51:08.571Z,23.73
2019-06-04T07:52:09.861Z,23.80
2019-06-04T07:53:08.542Z,23.76
2019-06-04T07:54:08.719Z,23.83
2019-06-04T07:55:08.544Z,23.96
2019-06-04T07:56:08.548Z,23.88
2019-06-04T07:57:08.550Z,23.93
2019-06-04T07:58:08.554Z,23.96
2019-06-04T07:59:08.555Z,23.98
2019-06-04T08:00:08.562Z,24.03
2019-06-04T08:01:08.561Z,24.13
2019-06-04T08:02:08.838Z,24.02
2019-06-04T08:03:08.573Z,24.18
2019-06-04T08:04:08.580Z,24.18
2019-06-04T08:05:08.586Z,24.14
2019-06-04T08:06:08.579Z,24.17
2019-06-04T08:07:09.920Z,24.16
2019-06-04T08:08:08.585Z,24.18
2019-06-04T08:09:08.591Z,24.11
2019-06-04T08:10:08.598Z,24.28
2019-06-04T08:11:08.596Z,24.24
2019-06-04T08:12:08.596Z,24.28
2019-06-04T08:13:08.602Z,24.30
2019-06-04T08:14:08.608Z,24.26
2019-06-04T08:15:08.610Z,24.30
2019-06-04T08:16:08.614Z,24.30
2019-06-04T08:17:08.614Z,24.35
2019-06-04T08:18:08.624Z,24.35
2019-06-04T08:19:08.621Z,24.38
2019-06-04T08:20:08.628Z,24.39
2019-06-04T08:21:08.630Z,24.42
2019-06-04T08:22:08.633Z,24.38
2019-06-04T08:23:08.632Z,24.40
2019-06-04T08:24:08.640Z,24.47
2019-06-04T08:25:08.643Z,24.48
2019-06-04T08:26:08.649Z,24.50
2019-06-04T08:27:08.642Z,24.58
2019-06-04T08:28:08.652Z,24.58
2019-06-04T08:29:08.662Z,24.61
2019-06-04T08:30:08.669Z,24.61
2019-06-04T08:31:08.661Z,24.88
2019-06-04T08:32:08.666Z,25.28
2019-06-04T08:33:08.670Z,25.68
2019-06-04T08:34:08.683Z,26.22
2019-06-04T08:35:08.677Z,26.99
2019-06-04T08:36:08.693Z,27.67
2019-06-04T08:37:08.689Z,28.45
2019-06-04T08:38:08.692Z,29.08
2019-06-04T08:39:08.700Z,29.60
2019-06-04T08:40:08.698Z,30.13
2019-06-04T08:41:08.708Z,30.73
2019-06-04T08:42:08.711Z,31.22
2019-06-04T08:43:08.714Z,31.76
2019-06-04T08:44:08.724Z,32.21
2019-06-04T08:45:09.346Z,32.51
2019-06-04T08:46:08.740Z,33.01
2019-06-04T08:47:08.836Z,33.40
2019-06-04T08:48:08.740Z,33.76
2019-06-04T08:49:08.755Z,34.10
2019-06-04T08:50:08.753Z,34.35
2019-06-04T08:51:08.760Z,34.50
2019-06-04T08:52:08.767Z,34.71
2019-06-04T08:53:11.088Z,34.85
2019-06-04T08:54:08.780Z,35.12
2019-06-04T08:55:08.788Z,35.19
2019-06-04T08:56:08.789Z,35.41
2019-06-04T08:57:09.004Z,35.60
2019-06-04T08:58:08.808Z,35.74
2019-06-04T08:59:08.812Z,35.92
2019-06-04T09:00:08.817Z,35.97
2019-06-04T09:01:08.830Z,36.09
2019-06-04T09:02:08.834Z,36.24
2019-06-04T09:03:08.844Z,36.31
2019-06-04T09:04:08.851Z,36.37
2019-06-04T09:05:08.860Z,36.37
2019-06-04T09:06:08.868Z,36.49
2019-06-04T09:07:25.219Z,36.70
2019-06-04T09:08:08.886Z,37.06
2019-06-04T09:09:08.893Z,37.29
2019-06-04T09:10:08.903Z,37.59
2019-06-04T09:11:08.908Z,37.75
2019-06-04T09:12:08.920Z,37.96
2019-06-04T09:13:08.968Z,37.99
2019-06-04T09:14:08.949Z,38.11
2019-06-04T09:15:08.943Z,38.12
2019-06-04T09:16:08.952Z,38.21
2019-06-04T09:17:08.975Z,38.50
2019-06-04T09:18:08.970Z,38.74
2019-06-04T09:19:08.976Z,39.03
2019-06-04T09:20:08.985Z,39.21
2019-06-04T09:21:09.001Z,39.34
2019-06-04T09:22:09.002Z,39.58
2019-06-04T09:23:09.049Z,39.65
2019-06-04T09:24:09.024Z,39.86
2019-06-04T09:25:09.033Z,40.02
2019-06-04T09:26:09.042Z,40.21
2019-06-04T09:27:09.047Z,40.31
2019-06-04T09:28:09.065Z,40.44
2019-06-04T09:29:09.076Z,40.44
2019-06-04T09:30:09.108Z,40.47
2019-06-04T09:31:09.086Z,40.44
2019-06-04T09:32:09.104Z,40.56
2019-06-04T09:33:09.113Z,40.44
2019-06-04T09:34:09.138Z,40.58
2019-06-04T09:35:09.152Z,40.63
2019-06-04T09:36:09.142Z,40.66
2019-06-04T09:37:09.275Z,40.66
2019-06-04T09:38:10.770Z,40.68
2019-06-04T09:39:09.170Z,40.63
2019-06-04T09:40:09.182Z,40.87
2019-06-04T09:41:09.192Z,40.88
2019-06-04T09:42:09.199Z,41.09
2019-06-04T09:43:09.208Z,41.15
2019-06-04T09:44:09.222Z,41.28
2019-06-04T09:45:09.229Z,41.10
2019-06-04T09:46:09.246Z,40.84
2019-06-04T09:47:09.273Z,40.82
2019-06-04T09:48:09.273Z,40.91
2019-06-04T09:49:09.273Z,40.82
2019-06-04T09:50:09.284Z,40.84
2019-06-04T09:51:09.313Z,40.75
2019-06-04T09:52:09.306Z,40.85
2019-06-04T09:53:09.315Z,40.85
2019-06-04T09:54:09.418Z,40.78
2019-06-04T09:55:09.371Z,40.87
2019-06-04T09:56:09.348Z,41.09
2019-06-04T09:57:09.486Z,41.33
2019-06-04T09:58:29.285Z,41.28
2019-06-04T09:59:09.386Z,41.31
2019-06-04T10:00:09.392Z,41.33
2019-06-04T10:01:09.416Z,41.34
2019-06-04T10:02:09.421Z,41.50
2019-06-04T10:03:09.423Z,41.65
2019-06-04T10:04:09.444Z,41.83
2019-06-04T10:05:09.451Z,41.82
2019-06-04T10:06:09.458Z,41.87
2019-06-04T10:07:09.552Z,41.62
2019-06-04T10:08:12.169Z,41.57
2019-06-04T10:09:09.502Z,41.49
2019-06-04T10:10:09.520Z,41.43
2019-06-04T10:11:09.526Z,41.55
2019-06-04T10:12:09.622Z,41.82
2019-06-04T10:13:09.538Z,42.07
2019-06-04T10:14:09.565Z,42.25
2019-06-04T10:15:09.564Z,42.48
2019-06-04T10:16:09.626Z,42.50
2019-06-04T10:17:09.586Z,42.57
2019-06-04T10:18:09.599Z,42.67
2019-06-04T10:19:09.612Z,42.51
2019-06-04T10:20:09.652Z,42.53
2019-06-04T10:21:09.637Z,42.47
2019-06-04T10:22:09.657Z,42.51
2019-06-04T10:23:10.235Z,42.45
2019-06-04T10:24:11.441Z,42.45
2019-06-04T10:25:09.687Z,42.48
2019-06-04T10:26:23.794Z,42.45
2019-06-04T10:27:09.863Z,42.48
2019-06-04T10:28:09.727Z,42.66
2019-06-04T10:29:10.013Z,42.86
2019-06-04T10:30:09.748Z,42.99
2019-06-04T10:31:09.773Z,42.63
2019-06-04T10:32:09.900Z,42.17
2019-06-04T10:33:14.081Z,41.28
2019-06-04T10:34:11.533Z,40.90
2019-06-04T10:35:09.829Z,40.44
2019-06-04T10:36:09.832Z,39.97
2019-06-04T10:37:20.305Z,39.71
2019-06-04T10:38:26.277Z,39.93
2019-06-04T10:39:10.064Z,40.16
2019-06-04T10:40:10.514Z,40.51
2019-06-04T10:41:09.905Z,40.84
2019-06-04T10:43:24.188Z,41.49
2019-06-04T10:44:24.663Z,41.49
2019-06-04T10:46:20.783Z,41.88
2019-06-04T10:47:20.011Z,42.13
2019-06-04T10:49:15.303Z,41.82
2019-06-04T10:50:15.430Z,41.85
2019-06-04T10:52:09.112Z,42.01
2019-06-04T10:53:09.661Z,41.88
2019-06-04T10:55:05.047Z,42.13
2019-06-04T10:56:04.808Z,41.97
2019-06-04T10:58:00.354Z,41.74
2019-06-04T10:59:00.372Z,41.56
2019-06-04T11:00:56.853Z,41.87
2019-06-04T11:01:56.165Z,42.06
2019-06-04T11:03:51.192Z,42.21
2019-06-04T11:04:50.035Z,42.41
2019-06-04T11:06:43.808Z,42.73
2019-06-04T11:07:43.689Z,42.76
2019-06-04T11:09:37.527Z,41.94
2019-06-04T11:10:37.323Z,41.47
2019-06-04T11:12:32.686Z,40.56
2019-06-04T11:13:32.148Z,40.05
2019-06-04T11:15:26.743Z,40.40
2019-06-04T11:16:26.604Z,40.58
2019-06-04T11:18:20.280Z,40.96
2019-06-04T11:19:20.714Z,41.14
2019-06-04T11:21:14.418Z,41.52
2019-06-04T11:22:14.136Z,41.91
2019-06-04T11:24:10.879Z,42.36
2019-06-04T11:25:10.669Z,42.50
2019-06-04T11:26:10.927Z,42.76
2019-06-04T11:27:10.692Z,43.11
2019-06-04T11:28:11.050Z,43.30
2019-06-04T11:29:11.799Z,43.49
2019-06-04T11:30:10.850Z,43.36
2019-06-04T11:31:10.765Z,43.42
2019-06-04T11:32:11.010Z,43.42
2019-06-04T11:33:10.980Z,43.64
2019-06-04T11:34:25.803Z,43.91
2019-06-04T11:35:11.211Z,44.26
2019-06-04T11:36:11.022Z,44.34
2019-06-04T11:37:10.878Z,44.56
2019-06-04T11:38:10.849Z,44.56
2019-06-04T11:39:18.532Z,44.58
2019-06-04T11:40:10.952Z,44.49
2019-06-04T11:41:10.916Z,44.34
2019-06-04T11:42:11.023Z,44.02
2019-06-04T11:43:12.433Z,44.10
2019-06-04T11:44:10.974Z,44.08
2019-06-04T11:45:23.601Z,43.89
2019-06-04T11:46:11.171Z,43.76
2019-06-04T11:47:10.981Z,43.72
2019-06-04T11:48:11.116Z,43.81
2019-06-04T11:49:11.106Z,43.76
2019-06-04T11:50:11.047Z,43.69
2019-06-04T11:51:11.052Z,43.84
2019-06-04T11:52:11.086Z,43.80
2019-06-04T11:53:11.135Z,43.31
2019-06-04T11:54:11.120Z,42.97
2019-06-04T11:55:11.133Z,42.45
2019-06-04T11:56:11.225Z,42.12
2019-06-04T11:57:12.265Z,42.01
2019-06-04T11:58:11.198Z,41.85
2019-06-04T11:59:11.191Z,41.45
2019-06-04T12:00:11.414Z,41.12
2019-06-04T12:01:17.925Z,40.82
2019-06-04T12:02:11.285Z,40.53
2019-06-04T12:03:12.117Z,40.62
2019-06-04T12:04:11.257Z,40.77
2019-06-04T12:05:11.279Z,40.54
2019-06-04T12:06:11.302Z,40.63
2019-06-04T12:07:12.207Z,40.96
2019-06-04T12:08:12.712Z,41.24
2019-06-04T12:09:29.658Z,41.50
2019-06-04T12:10:19.456Z,41.37
2019-06-04T12:12:41.341Z,41.34
2019-06-04T12:13:06.705Z,41.07
2019-06-04T12:15:02.021Z,40.35
2019-06-04T12:16:02.123Z,40.20
2019-06-04T12:17:56.100Z,40.99
2019-06-04T12:18:56.021Z,41.31
2019-06-04T12:20:49.749Z,41.98
2019-06-04T12:21:49.644Z,42.54
2019-06-04T12:23:44.369Z,43.11
2019-06-04T12:24:44.390Z,43.62
2019-06-04T12:26:39.241Z,43.95
2019-06-04T12:27:38.756Z,43.81
2019-06-04T12:29:33.526Z,42.41
2019-06-04T12:30:33.371Z,42.28
2019-06-04T12:32:28.167Z,41.75
2019-06-04T12:33:27.976Z,41.63
2019-06-04T12:35:22.559Z,41.62
2019-06-04T12:36:22.565Z,41.82
2019-06-04T12:38:17.768Z,40.99
2019-06-04T12:39:17.253Z,40.91
2019-06-04T12:41:15.685Z,40.63
2019-06-04T12:42:15.735Z,40.63
2019-06-04T12:43:17.265Z,40.61
2019-06-04T12:44:15.787Z,40.47
2019-06-04T12:45:19.273Z,40.73
2019-06-04T12:46:17.198Z,41.02
2019-06-04T12:47:15.737Z,41.10
2019-06-04T12:48:16.806Z,41.36
2019-06-04T12:49:15.731Z,41.62
2019-06-04T12:50:15.750Z,42.17
2019-06-04T12:51:15.745Z,42.38
2019-06-04T12:52:17.750Z,42.79
2019-06-04T12:53:15.732Z,43.10
2019-06-04T12:54:19.022Z,43.27
2019-06-04T12:55:15.813Z,43.31
2019-06-04T12:56:17.792Z,43.28
2019-06-04T12:57:15.831Z,43.28
2019-06-04T12:58:15.841Z,42.95
2019-06-04T12:59:15.857Z,42.70
2019-06-04T13:00:17.686Z,42.50
2019-06-04T13:01:15.951Z,42.55
2019-06-04T13:02:25.649Z,42.24
2019-06-04T13:03:16.264Z,41.68
2019-06-04T13:04:16.569Z,41.10
2019-06-04T13:05:16.130Z,40.72
2019-06-04T13:06:18.736Z,40.81
2019-06-04T13:07:17.747Z,40.92
2019-06-04T13:08:26.562Z,41.18
2019-06-04T13:09:16.067Z,41.53
2019-06-04T13:10:28.281Z,41.60
2019-06-04T13:11:17.848Z,41.47
2019-06-04T13:12:16.058Z,41.15
2019-06-04T13:13:16.117Z,40.95
2019-06-04T13:14:17.690Z,40.63
2019-06-04T13:15:16.103Z,40.63
2019-06-04T13:16:17.690Z,40.84